sensor_id;sensor_type;location;lat;lon;timestamp;P1;durP1;ratioP1;P2;durP2;ratioP2
43793;SDS011;29414;44.798;20.366;2022-09-09T00:01:17;10.95;;;7.45;;
43793;SDS011;29414;44.798;20.366;2022-09-09T00:05:26;13.57;;;8.68;;
43793;SDS011;29414;44.798;20.366;2022-09-09T00:09:28;13.52;;;9.10;;
43793;SDS011;29414;44.798;20.366;2022-09-09T00:13:37;14.30;;;10.50;;
43793;SDS011;29414;44.798;20.366;2022-09-09T00:17:43;18.27;;;8.80;;
43793;SDS011;29414;44.798;20.366;2022-09-09T00:22:07;9.27;;;8.27;;
43793;SDS011;29414;44.798;20.366;2022-09-09T00:26:30;12.98;;;8.35;;
43793;SDS011;29414;44.798;20.366;2022-09-09T00:30:33;13.15;;;8.52;;
43793;SDS011;29414;44.798;20.366;2022-09-09T00:34:34;8.95;;;7.35;;
43793;SDS011;29414;44.798;20.366;2022-09-09T00:38:40;12.77;;;9.45;;
43793;SDS011;29414;44.798;20.366;2022-09-09T00:42:43;13.07;;;9.82;;
43793;SDS011;29414;44.798;20.366;2022-09-09T01:00:16;13.15;;;9.85;;
43793;SDS011;29414;44.798;20.366;2022-09-09T01:04:06;10.82;;;9.82;;
43793;SDS011;29414;44.798;20.366;2022-09-09T01:16:31;16.20;;;10.70;;
43793;SDS011;29414;44.798;20.366;2022-09-09T01:20:45;13.70;;;10.93;;
43793;SDS011;29414;44.798;20.366;2022-09-09T01:28:48;17.15;;;12.60;;
43793;SDS011;29414;44.798;20.366;2022-09-09T01:32:50;17.35;;;12.07;;
43793;SDS011;29414;44.798;20.366;2022-09-09T01:41:00;16.67;;;12.85;;
43793;SDS011;29414;44.798;20.366;2022-09-09T01:45:00;22.42;;;13.48;;
43793;SDS011;29414;44.798;20.366;2022-09-09T01:49:02;19.73;;;14.05;;
43793;SDS011;29414;44.798;20.366;2022-09-09T01:53:02;17.95;;;14.73;;
43793;SDS011;29414;44.798;20.366;2022-09-09T01:57:17;16.23;;;13.45;;
43793;SDS011;29414;44.798;20.366;2022-09-09T02:01:34;23.02;;;13.73;;
43793;SDS011;29414;44.798;20.366;2022-09-09T02:05:38;20.38;;;14.85;;
43793;SDS011;29414;44.798;20.366;2022-09-09T02:09:39;17.25;;;14.13;;
43793;SDS011;29414;44.798;20.366;2022-09-09T02:13:40;17.30;;;13.63;;
43793;SDS011;29414;44.798;20.366;2022-09-09T02:17:42;20.80;;;14.13;;
43793;SDS011;29414;44.798;20.366;2022-09-09T02:21:44;16.10;;;12.43;;
43793;SDS011;29414;44.798;20.366;2022-09-09T02:25:45;16.77;;;12.43;;
43793;SDS011;29414;44.798;20.366;2022-09-09T02:29:47;14.20;;;12.45;;
43793;SDS011;29414;44.798;20.366;2022-09-09T02:33:56;19.65;;;13.13;;
43793;SDS011;29414;44.798;20.366;2022-09-09T02:37:59;17.35;;;12.68;;
43793;SDS011;29414;44.798;20.366;2022-09-09T02:42:01;14.52;;;10.43;;
43793;SDS011;29414;44.798;20.366;2022-09-09T02:46:28;16.88;;;11.68;;
43793;SDS011;29414;44.798;20.366;2022-09-09T02:58:24;17.20;;;11.93;;
43793;SDS011;29414;44.798;20.366;2022-09-09T03:02:25;16.42;;;13.77;;
43793;SDS011;29414;44.798;20.366;2022-09-09T03:06:25;18.35;;;11.40;;
43793;SDS011;29414;44.798;20.366;2022-09-09T03:10:26;13.88;;;11.80;;
43793;SDS011;29414;44.798;20.366;2022-09-09T03:14:26;22.48;;;13.75;;
43793;SDS011;29414;44.798;20.366;2022-09-09T03:18:27;14.32;;;12.07;;
43793;SDS011;29414;44.798;20.366;2022-09-09T03:22:28;17.52;;;11.82;;
43793;SDS011;29414;44.798;20.366;2022-09-09T03:26:28;13.30;;;11.38;;
43793;SDS011;29414;44.798;20.366;2022-09-09T03:30:29;17.27;;;11.35;;
43793;SDS011;29414;44.798;20.366;2022-09-09T03:34:29;18.08;;;12.43;;
43793;SDS011;29414;44.798;20.366;2022-09-09T03:38:29;13.70;;;12.32;;
43793;SDS011;29414;44.798;20.366;2022-09-09T03:42:30;18.13;;;13.82;;
43793;SDS011;29414;44.798;20.366;2022-09-09T03:46:31;18.60;;;13.05;;
43793;SDS011;29414;44.798;20.366;2022-09-09T03:50:32;17.42;;;14.38;;
43793;SDS011;29414;44.798;20.366;2022-09-09T03:54:32;17.13;;;13.98;;
43793;SDS011;29414;44.798;20.366;2022-09-09T03:58:33;16.92;;;13.00;;
43793;SDS011;29414;44.798;20.366;2022-09-09T04:02:33;14.50;;;11.77;;
43793;SDS011;29414;44.798;20.366;2022-09-09T04:06:34;15.32;;;12.00;;
43793;SDS011;29414;44.798;20.366;2022-09-09T04:10:34;17.63;;;11.82;;
43793;SDS011;29414;44.798;20.366;2022-09-09T04:14:37;18.48;;;10.93;;
43793;SDS011;29414;44.798;20.366;2022-09-09T04:18:38;19.80;;;11.80;;
43793;SDS011;29414;44.798;20.366;2022-09-09T04:22:38;20.15;;;10.80;;
43793;SDS011;29414;44.798;20.366;2022-09-09T04:26:39;16.84;;;11.42;;
43793;SDS011;29414;44.798;20.366;2022-09-09T04:30:39;24.02;;;12.15;;
43793;SDS011;29414;44.798;20.366;2022-09-09T04:34:40;16.15;;;11.20;;
43793;SDS011;29414;44.798;20.366;2022-09-09T04:38:41;17.70;;;10.57;;
43793;SDS011;29414;44.798;20.366;2022-09-09T04:42:42;14.38;;;9.85;;
43793;SDS011;29414;44.798;20.366;2022-09-09T04:46:44;18.10;;;10.68;;
43793;SDS011;29414;44.798;20.366;2022-09-09T04:50:53;12.98;;;9.15;;
43793;SDS011;29414;44.798;20.366;2022-09-09T04:54:53;15.00;;;10.02;;
43793;SDS011;29414;44.798;20.366;2022-09-09T04:58:54;20.23;;;11.20;;
43793;SDS011;29414;44.798;20.366;2022-09-09T05:02:55;17.98;;;10.43;;
43793;SDS011;29414;44.798;20.366;2022-09-09T05:06:55;14.25;;;9.35;;
43793;SDS011;29414;44.798;20.366;2022-09-09T05:10:55;12.63;;;9.38;;
43793;SDS011;29414;44.798;20.366;2022-09-09T05:14:56;18.52;;;9.88;;
43793;SDS011;29414;44.798;20.366;2022-09-09T05:18:56;16.23;;;11.95;;
43793;SDS011;29414;44.798;20.366;2022-09-09T05:22:56;10.68;;;9.55;;
43793;SDS011;29414;44.798;20.366;2022-09-09T05:26:57;14.15;;;10.02;;
43793;SDS011;29414;44.798;20.366;2022-09-09T05:30:59;12.55;;;9.27;;
43793;SDS011;29414;44.798;20.366;2022-09-09T05:35:00;16.83;;;10.95;;
43793;SDS011;29414;44.798;20.366;2022-09-09T05:39:01;13.98;;;9.63;;
43793;SDS011;29414;44.798;20.366;2022-09-09T05:43:01;16.38;;;9.68;;
43793;SDS011;29414;44.798;20.366;2022-09-09T05:47:02;14.00;;;9.23;;
43793;SDS011;29414;44.798;20.366;2022-09-09T05:51:02;10.90;;;9.02;;
43793;SDS011;29414;44.798;20.366;2022-09-09T05:55:03;14.00;;;10.07;;
43793;SDS011;29414;44.798;20.366;2022-09-09T05:59:04;13.23;;;10.15;;
43793;SDS011;29414;44.798;20.366;2022-09-09T06:03:06;11.90;;;9.65;;
43793;SDS011;29414;44.798;20.366;2022-09-09T06:07:06;14.63;;;9.15;;
43793;SDS011;29414;44.798;20.366;2022-09-09T06:11:07;13.13;;;8.13;;
43793;SDS011;29414;44.798;20.366;2022-09-09T06:15:08;10.13;;;8.05;;
43793;SDS011;29414;44.798;20.366;2022-09-09T06:19:09;13.32;;;8.70;;
43793;SDS011;29414;44.798;20.366;2022-09-09T06:23:09;11.90;;;8.73;;
43793;SDS011;29414;44.798;20.366;2022-09-09T06:27:09;14.05;;;10.25;;
43793;SDS011;29414;44.798;20.366;2022-09-09T06:31:11;12.25;;;9.57;;
43793;SDS011;29414;44.798;20.366;2022-09-09T06:35:11;16.52;;;10.13;;
43793;SDS011;29414;44.798;20.366;2022-09-09T06:39:13;19.75;;;10.43;;
43793;SDS011;29414;44.798;20.366;2022-09-09T06:43:15;14.88;;;10.95;;
43793;SDS011;29414;44.798;20.366;2022-09-09T06:47:15;10.35;;;8.05;;
43793;SDS011;29414;44.798;20.366;2022-09-09T06:51:16;12.93;;;8.90;;
43793;SDS011;29414;44.798;20.366;2022-09-09T06:55:17;13.75;;;11.02;;
43793;SDS011;29414;44.798;20.366;2022-09-09T06:59:17;19.45;;;10.57;;
43793;SDS011;29414;44.798;20.366;2022-09-09T07:03:18;15.40;;;11.40;;
43793;SDS011;29414;44.798;20.366;2022-09-09T07:07:18;18.25;;;12.38;;
43793;SDS011;29414;44.798;20.366;2022-09-09T07:11:19;14.23;;;10.90;;
43793;SDS011;29414;44.798;20.366;2022-09-09T07:15:20;15.82;;;11.27;;
43793;SDS011;29414;44.798;20.366;2022-09-09T07:19:22;16.42;;;10.77;;
43793;SDS011;29414;44.798;20.366;2022-09-09T07:23:23;17.40;;;11.18;;
43793;SDS011;29414;44.798;20.366;2022-09-09T07:27:23;11.43;;;9.52;;
43793;SDS011;29414;44.798;20.366;2022-09-09T07:31:31;12.60;;;9.15;;
43793;SDS011;29414;44.798;20.366;2022-09-09T07:35:32;11.02;;;9.90;;
43793;SDS011;29414;44.798;20.366;2022-09-09T07:39:32;11.80;;;9.35;;
43793;SDS011;29414;44.798;20.366;2022-09-09T07:43:32;10.73;;;8.60;;
43793;SDS011;29414;44.798;20.366;2022-09-09T07:47:33;13.48;;;9.90;;
43793;SDS011;29414;44.798;20.366;2022-09-09T07:51:36;21.08;;;10.82;;
43793;SDS011;29414;44.798;20.366;2022-09-09T07:55:36;12.40;;;11.15;;
43793;SDS011;29414;44.798;20.366;2022-09-09T07:59:37;19.85;;;12.25;;
43793;SDS011;29414;44.798;20.366;2022-09-09T08:03:37;19.40;;;12.45;;
43793;SDS011;29414;44.798;20.366;2022-09-09T08:07:38;14.15;;;11.73;;
43793;SDS011;29414;44.798;20.366;2022-09-09T08:11:39;20.70;;;13.90;;
43793;SDS011;29414;44.798;20.366;2022-09-09T08:15:39;20.30;;;11.95;;
43793;SDS011;29414;44.798;20.366;2022-09-09T08:19:41;14.05;;;11.50;;
43793;SDS011;29414;44.798;20.366;2022-09-09T08:23:41;13.15;;;11.93;;
43793;SDS011;29414;44.798;20.366;2022-09-09T08:27:42;12.55;;;10.07;;
43793;SDS011;29414;44.798;20.366;2022-09-09T08:35:51;12.73;;;9.38;;
43793;SDS011;29414;44.798;20.366;2022-09-09T08:39:52;15.88;;;9.90;;
43793;SDS011;29414;44.798;20.366;2022-09-09T08:44:07;12.30;;;8.20;;
43793;SDS011;29414;44.798;20.366;2022-09-09T08:52:18;13.75;;;8.55;;
43793;SDS011;29414;44.798;20.366;2022-09-09T08:56:21;14.35;;;7.97;;
43793;SDS011;29414;44.798;20.366;2022-09-09T09:00:22;12.80;;;7.18;;
43793;SDS011;29414;44.798;20.366;2022-09-09T09:08:31;11.10;;;7.32;;
43793;SDS011;29414;44.798;20.366;2022-09-09T09:12:38;10.07;;;7.55;;
43793;SDS011;29414;44.798;20.366;2022-09-09T09:16:44;8.10;;;6.57;;
43793;SDS011;29414;44.798;20.366;2022-09-09T09:21:05;12.27;;;6.55;;
43793;SDS011;29414;44.798;20.366;2022-09-09T09:29:10;10.32;;;6.22;;
43793;SDS011;29414;44.798;20.366;2022-09-09T09:33:20;11.10;;;5.68;;
43793;SDS011;29414;44.798;20.366;2022-09-09T09:37:23;7.97;;;6.93;;
43793;SDS011;29414;44.798;20.366;2022-09-09T09:41:40;10.65;;;6.43;;
43793;SDS011;29414;44.798;20.366;2022-09-09T09:45:42;9.15;;;5.53;;
43793;SDS011;29414;44.798;20.366;2022-09-09T09:49:54;13.45;;;7.22;;
43793;SDS011;29414;44.798;20.366;2022-09-09T09:54:02;8.70;;;6.18;;
43793;SDS011;29414;44.798;20.366;2022-09-09T09:58:05;11.20;;;5.25;;
43793;SDS011;29414;44.798;20.366;2022-09-09T10:06:12;9.07;;;5.95;;
43793;SDS011;29414;44.798;20.366;2022-09-09T10:10:20;12.30;;;5.68;;
43793;SDS011;29414;44.798;20.366;2022-09-09T10:22:27;11.88;;;6.03;;
43793;SDS011;29414;44.798;20.366;2022-09-09T10:26:38;11.32;;;7.30;;
43793;SDS011;29414;44.798;20.366;2022-09-09T10:30:53;8.32;;;5.70;;
43793;SDS011;29414;44.798;20.366;2022-09-09T10:43:03;8.25;;;5.35;;
43793;SDS011;29414;44.798;20.366;2022-09-09T10:47:22;8.90;;;5.43;;
43793;SDS011;29414;44.798;20.366;2022-09-09T10:55:32;8.10;;;4.80;;
43793;SDS011;29414;44.798;20.366;2022-09-09T10:59:40;11.02;;;5.22;;
43793;SDS011;29414;44.798;20.366;2022-09-09T11:03:43;6.47;;;5.40;;
43793;SDS011;29414;44.798;20.366;2022-09-09T11:12:03;9.95;;;5.13;;
43793;SDS011;29414;44.798;20.366;2022-09-09T11:16:16;7.82;;;5.05;;
43793;SDS011;29414;44.798;20.366;2022-09-09T11:20:17;7.50;;;4.97;;
43793;SDS011;29414;44.798;20.366;2022-09-09T11:24:21;7.90;;;4.80;;
43793;SDS011;29414;44.798;20.366;2022-09-09T11:28:45;9.38;;;4.63;;
43793;SDS011;29414;44.798;20.366;2022-09-09T11:41:11;9.48;;;4.25;;
43793;SDS011;29414;44.798;20.366;2022-09-09T11:49:28;6.15;;;4.03;;
43793;SDS011;29414;44.798;20.366;2022-09-09T11:53:30;4.65;;;3.78;;
43793;SDS011;29414;44.798;20.366;2022-09-09T11:57:35;7.70;;;4.63;;
43793;SDS011;29414;44.798;20.366;2022-09-09T12:01:36;8.38;;;3.60;;
43793;SDS011;29414;44.798;20.366;2022-09-09T12:05:40;7.20;;;3.95;;
43793;SDS011;29414;44.798;20.366;2022-09-09T12:09:52;11.07;;;4.45;;
43793;SDS011;29414;44.798;20.366;2022-09-09T12:13:56;6.25;;;3.50;;
43793;SDS011;29414;44.798;20.366;2022-09-09T12:17:57;7.85;;;4.35;;
43793;SDS011;29414;44.798;20.366;2022-09-09T12:22:07;7.72;;;4.53;;
43793;SDS011;29414;44.798;20.366;2022-09-09T12:30:15;6.03;;;3.40;;
43793;SDS011;29414;44.798;20.366;2022-09-09T12:38:36;6.70;;;3.40;;
43793;SDS011;29414;44.798;20.366;2022-09-09T12:42:39;7.88;;;3.55;;
43793;SDS011;29414;44.798;20.366;2022-09-09T12:46:45;8.43;;;4.03;;
43793;SDS011;29414;44.798;20.366;2022-09-09T12:50:49;6.18;;;3.95;;
43793;SDS011;29414;44.798;20.366;2022-09-09T12:54:50;4.93;;;3.40;;
43793;SDS011;29414;44.798;20.366;2022-09-09T12:58:54;4.60;;;3.93;;
43793;SDS011;29414;44.798;20.366;2022-09-09T13:02:56;8.40;;;5.25;;
43793;SDS011;29414;44.798;20.366;2022-09-09T13:07:09;6.82;;;4.13;;
43793;SDS011;29414;44.798;20.366;2022-09-09T13:11:12;10.65;;;4.22;;
43793;SDS011;29414;44.798;20.366;2022-09-09T13:15:19;3.75;;;3.42;;
43793;SDS011;29414;44.798;20.366;2022-09-09T13:19:20;7.28;;;3.80;;
43793;SDS011;29414;44.798;20.366;2022-09-09T13:23:21;7.43;;;4.32;;
43793;SDS011;29414;44.798;20.366;2022-09-09T13:27:29;7.88;;;3.72;;
43793;SDS011;29414;44.798;20.366;2022-09-09T13:31:30;9.85;;;3.88;;
43793;SDS011;29414;44.798;20.366;2022-09-09T13:35:33;7.35;;;4.45;;
43793;SDS011;29414;44.798;20.366;2022-09-09T13:39:34;6.45;;;3.88;;
43793;SDS011;29414;44.798;20.366;2022-09-09T13:43:36;5.50;;;4.43;;
43793;SDS011;29414;44.798;20.366;2022-09-09T13:47:36;10.27;;;4.43;;
43793;SDS011;29414;44.798;20.366;2022-09-09T13:51:41;6.82;;;4.82;;
43793;SDS011;29414;44.798;20.366;2022-09-09T13:55:42;10.65;;;4.40;;
43793;SDS011;29414;44.798;20.366;2022-09-09T13:59:42;7.38;;;4.60;;
43793;SDS011;29414;44.798;20.366;2022-09-09T14:03:42;5.63;;;4.05;;
43793;SDS011;29414;44.798;20.366;2022-09-09T14:07:43;11.80;;;4.03;;
43793;SDS011;29414;44.798;20.366;2022-09-09T14:11:44;7.93;;;4.30;;
43793;SDS011;29414;44.798;20.366;2022-09-09T14:15:45;7.20;;;4.15;;
43793;SDS011;29414;44.798;20.366;2022-09-09T14:19:45;9.40;;;3.88;;
43793;SDS011;29414;44.798;20.366;2022-09-09T14:23:46;10.35;;;4.40;;
43793;SDS011;29414;44.798;20.366;2022-09-09T14:27:46;8.98;;;4.20;;
43793;SDS011;29414;44.798;20.366;2022-09-09T14:31:46;5.50;;;3.60;;
43793;SDS011;29414;44.798;20.366;2022-09-09T14:35:47;7.13;;;3.70;;
43793;SDS011;29414;44.798;20.366;2022-09-09T14:39:47;7.90;;;4.07;;
43793;SDS011;29414;44.798;20.366;2022-09-09T14:43:50;5.13;;;3.40;;
43793;SDS011;29414;44.798;20.366;2022-09-09T14:47:52;4.90;;;3.50;;
43793;SDS011;29414;44.798;20.366;2022-09-09T14:51:52;8.05;;;3.85;;
43793;SDS011;29414;44.798;20.366;2022-09-09T14:55:52;8.40;;;3.60;;
43793;SDS011;29414;44.798;20.366;2022-09-09T14:59:53;16.10;;;4.13;;
43793;SDS011;29414;44.798;20.366;2022-09-09T15:04:00;8.23;;;3.67;;
43793;SDS011;29414;44.798;20.366;2022-09-09T15:08:00;7.93;;;3.38;;
43793;SDS011;29414;44.798;20.366;2022-09-09T15:12:01;5.30;;;3.78;;
43793;SDS011;29414;44.798;20.366;2022-09-09T15:16:03;6.18;;;3.10;;
43793;SDS011;29414;44.798;20.366;2022-09-09T15:20:03;4.07;;;3.45;;
43793;SDS011;29414;44.798;20.366;2022-09-09T15:24:05;11.02;;;3.28;;
43793;SDS011;29414;44.798;20.366;2022-09-09T15:28:08;6.57;;;3.20;;
43793;SDS011;29414;44.798;20.366;2022-09-09T15:32:08;10.97;;;4.10;;
43793;SDS011;29414;44.798;20.366;2022-09-09T15:36:22;9.03;;;3.83;;
43793;SDS011;29414;44.798;20.366;2022-09-09T15:40:22;10.07;;;3.88;;
43793;SDS011;29414;44.798;20.366;2022-09-09T15:44:23;6.90;;;4.13;;
43793;SDS011;29414;44.798;20.366;2022-09-09T15:48:31;5.75;;;3.38;;
43793;SDS011;29414;44.798;20.366;2022-09-09T15:52:32;9.10;;;3.60;;
43793;SDS011;29414;44.798;20.366;2022-09-09T15:56:33;7.30;;;3.80;;
43793;SDS011;29414;44.798;20.366;2022-09-09T16:00:34;6.10;;;3.60;;
43793;SDS011;29414;44.798;20.366;2022-09-09T16:04:35;3.55;;;3.03;;
43793;SDS011;29414;44.798;20.366;2022-09-09T16:08:36;8.52;;;4.10;;
43793;SDS011;29414;44.798;20.366;2022-09-09T16:12:36;10.27;;;3.88;;
43793;SDS011;29414;44.798;20.366;2022-09-09T16:16:36;11.30;;;4.05;;
43793;SDS011;29414;44.798;20.366;2022-09-09T16:20:37;6.00;;;4.57;;
43793;SDS011;29414;44.798;20.366;2022-09-09T16:24:37;8.63;;;4.50;;
43793;SDS011;29414;44.798;20.366;2022-09-09T16:28:38;5.72;;;4.22;;
43793;SDS011;29414;44.798;20.366;2022-09-09T16:32:39;6.20;;;4.20;;
43793;SDS011;29414;44.798;20.366;2022-09-09T16:36:39;10.77;;;4.73;;
43793;SDS011;29414;44.798;20.366;2022-09-09T16:40:40;8.10;;;3.75;;
43793;SDS011;29414;44.798;20.366;2022-09-09T16:44:43;6.35;;;4.03;;
43793;SDS011;29414;44.798;20.366;2022-09-09T16:48:44;9.05;;;4.35;;
43793;SDS011;29414;44.798;20.366;2022-09-09T16:52:45;6.78;;;3.72;;
43793;SDS011;29414;44.798;20.366;2022-09-09T16:56:46;6.77;;;4.37;;
43793;SDS011;29414;44.798;20.366;2022-09-09T17:00:46;7.18;;;4.50;;
43793;SDS011;29414;44.798;20.366;2022-09-09T17:04:47;8.07;;;5.07;;
43793;SDS011;29414;44.798;20.366;2022-09-09T17:08:53;14.82;;;5.40;;
43793;SDS011;29414;44.798;20.366;2022-09-09T17:12:53;11.93;;;5.88;;
43793;SDS011;29414;44.798;20.366;2022-09-09T17:16:53;8.52;;;5.45;;
43793;SDS011;29414;44.798;20.366;2022-09-09T17:20:54;6.57;;;5.88;;
43793;SDS011;29414;44.798;20.366;2022-09-09T17:24:54;9.10;;;5.38;;
43793;SDS011;29414;44.798;20.366;2022-09-09T17:28:55;9.52;;;5.03;;
43793;SDS011;29414;44.798;20.366;2022-09-09T17:32:58;10.17;;;5.27;;
43793;SDS011;29414;44.798;20.366;2022-09-09T17:36:59;9.20;;;4.90;;
43793;SDS011;29414;44.798;20.366;2022-09-09T17:45:09;11.60;;;4.93;;
43793;SDS011;29414;44.798;20.366;2022-09-09T17:49:11;13.20;;;5.22;;
43793;SDS011;29414;44.798;20.366;2022-09-09T17:57:15;8.00;;;4.90;;
43793;SDS011;29414;44.798;20.366;2022-09-09T18:01:23;10.18;;;4.90;;
43793;SDS011;29414;44.798;20.366;2022-09-09T18:05:23;10.10;;;3.92;;
43793;SDS011;29414;44.798;20.366;2022-09-09T18:09:24;9.45;;;4.75;;
43793;SDS011;29414;44.798;20.366;2022-09-09T18:13:25;10.25;;;4.80;;
43793;SDS011;29414;44.798;20.366;2022-09-09T18:17:25;8.82;;;4.03;;
43793;SDS011;29414;44.798;20.366;2022-09-09T18:21:27;10.35;;;5.15;;
43793;SDS011;29414;44.798;20.366;2022-09-09T18:25:29;7.60;;;5.32;;
43793;SDS011;29414;44.798;20.366;2022-09-09T18:29:29;8.93;;;4.87;;
43793;SDS011;29414;44.798;20.366;2022-09-09T18:33:30;12.30;;;5.05;;
43793;SDS011;29414;44.798;20.366;2022-09-09T18:37:30;8.20;;;4.32;;
43793;SDS011;29414;44.798;20.366;2022-09-09T18:41:33;6.68;;;4.63;;
43793;SDS011;29414;44.798;20.366;2022-09-09T18:45:35;6.90;;;4.32;;
43793;SDS011;29414;44.798;20.366;2022-09-09T18:49:36;9.48;;;5.28;;
43793;SDS011;29414;44.798;20.366;2022-09-09T18:53:37;7.50;;;4.18;;
43793;SDS011;29414;44.798;20.366;2022-09-09T18:57:38;10.85;;;4.93;;
43793;SDS011;29414;44.798;20.366;2022-09-09T19:01:38;9.90;;;4.53;;
43793;SDS011;29414;44.798;20.366;2022-09-09T19:05:38;9.98;;;4.88;;
43793;SDS011;29414;44.798;20.366;2022-09-09T19:09:39;10.70;;;4.55;;
43793;SDS011;29414;44.798;20.366;2022-09-09T19:13:39;7.40;;;4.40;;
43793;SDS011;29414;44.798;20.366;2022-09-09T19:17:40;9.07;;;4.63;;
43793;SDS011;29414;44.798;20.366;2022-09-09T19:21:40;10.13;;;7.55;;
43793;SDS011;29414;44.798;20.366;2022-09-09T19:25:41;10.20;;;6.60;;
43793;SDS011;29414;44.798;20.366;2022-09-09T19:29:44;10.48;;;6.25;;
43793;SDS011;29414;44.798;20.366;2022-09-09T19:33:44;11.05;;;4.72;;
43793;SDS011;29414;44.798;20.366;2022-09-09T19:37:46;11.30;;;6.30;;
43793;SDS011;29414;44.798;20.366;2022-09-09T19:41:46;11.20;;;6.53;;
43793;SDS011;29414;44.798;20.366;2022-09-09T19:45:57;14.25;;;9.05;;
43793;SDS011;29414;44.798;20.366;2022-09-09T19:49:57;7.75;;;5.10;;
43793;SDS011;29414;44.798;20.366;2022-09-09T19:54:02;8.23;;;5.55;;
43793;SDS011;29414;44.798;20.366;2022-09-09T19:58:04;12.02;;;6.97;;
43793;SDS011;29414;44.798;20.366;2022-09-09T20:02:04;13.55;;;9.07;;
43793;SDS011;29414;44.798;20.366;2022-09-09T20:06:05;10.65;;;7.53;;
43793;SDS011;29414;44.798;20.366;2022-09-09T20:10:06;10.93;;;7.70;;
43793;SDS011;29414;44.798;20.366;2022-09-09T20:14:06;8.57;;;6.03;;
43793;SDS011;29414;44.798;20.366;2022-09-09T20:18:06;14.23;;;7.57;;
43793;SDS011;29414;44.798;20.366;2022-09-09T20:22:07;12.70;;;7.93;;
43793;SDS011;29414;44.798;20.366;2022-09-09T20:26:08;13.32;;;8.07;;
43793;SDS011;29414;44.798;20.366;2022-09-09T20:30:08;12.52;;;6.88;;
43793;SDS011;29414;44.798;20.366;2022-09-09T20:34:10;10.35;;;6.25;;
43793;SDS011;29414;44.798;20.366;2022-09-09T20:38:11;11.13;;;6.13;;
43793;SDS011;29414;44.798;20.366;2022-09-09T20:42:11;8.00;;;6.93;;
43793;SDS011;29414;44.798;20.366;2022-09-09T20:46:11;14.25;;;8.70;;
43793;SDS011;29414;44.798;20.366;2022-09-09T20:50:12;11.25;;;8.13;;
43793;SDS011;29414;44.798;20.366;2022-09-09T20:54:13;8.98;;;5.93;;
43793;SDS011;29414;44.798;20.366;2022-09-09T20:58:14;13.55;;;6.32;;
43793;SDS011;29414;44.798;20.366;2022-09-09T21:02:15;13.13;;;6.50;;
43793;SDS011;29414;44.798;20.366;2022-09-09T21:06:17;11.27;;;6.95;;
43793;SDS011;29414;44.798;20.366;2022-09-09T21:10:17;9.38;;;6.63;;
43793;SDS011;29414;44.798;20.366;2022-09-09T21:14:19;12.02;;;5.18;;
43793;SDS011;29414;44.798;20.366;2022-09-09T21:18:19;8.27;;;5.47;;
43793;SDS011;29414;44.798;20.366;2022-09-09T21:22:21;9.48;;;5.22;;
43793;SDS011;29414;44.798;20.366;2022-09-09T21:26:22;9.55;;;5.78;;
43793;SDS011;29414;44.798;20.366;2022-09-09T21:30:22;10.52;;;6.00;;
43793;SDS011;29414;44.798;20.366;2022-09-09T21:34:24;7.72;;;4.75;;
43793;SDS011;29414;44.798;20.366;2022-09-09T21:38:24;9.05;;;5.40;;
43793;SDS011;29414;44.798;20.366;2022-09-09T21:42:25;10.32;;;6.57;;
43793;SDS011;29414;44.798;20.366;2022-09-09T21:46:25;8.90;;;5.85;;
43793;SDS011;29414;44.798;20.366;2022-09-09T21:50:27;7.07;;;5.70;;
43793;SDS011;29414;44.798;20.366;2022-09-09T21:54:30;6.40;;;5.80;;
43793;SDS011;29414;44.798;20.366;2022-09-09T21:58:30;7.32;;;5.80;;
43793;SDS011;29414;44.798;20.366;2022-09-09T22:02:30;8.45;;;6.50;;
43793;SDS011;29414;44.798;20.366;2022-09-09T22:06:31;13.60;;;7.47;;
43793;SDS011;29414;44.798;20.366;2022-09-09T22:10:33;12.05;;;6.93;;
43793;SDS011;29414;44.798;20.366;2022-09-09T22:14:34;8.82;;;7.13;;
43793;SDS011;29414;44.798;20.366;2022-09-09T22:18:35;13.30;;;7.90;;
43793;SDS011;29414;44.798;20.366;2022-09-09T22:22:36;13.77;;;8.35;;
43793;SDS011;29414;44.798;20.366;2022-09-09T22:26:36;13.07;;;8.73;;
43793;SDS011;29414;44.798;20.366;2022-09-09T22:30:37;15.88;;;9.20;;
43793;SDS011;29414;44.798;20.366;2022-09-09T22:34:38;11.75;;;8.20;;
43793;SDS011;29414;44.798;20.366;2022-09-09T22:38:38;14.52;;;11.68;;
43793;SDS011;29414;44.798;20.366;2022-09-09T22:42:39;14.50;;;11.60;;
43793;SDS011;29414;44.798;20.366;2022-09-09T22:46:40;14.50;;;12.05;;
43793;SDS011;29414;44.798;20.366;2022-09-09T22:50:41;12.20;;;9.82;;
43793;SDS011;29414;44.798;20.366;2022-09-09T22:54:41;12.82;;;11.55;;
43793;SDS011;29414;44.798;20.366;2022-09-09T22:58:42;14.15;;;10.52;;
43793;SDS011;29414;44.798;20.366;2022-09-09T23:02:42;12.25;;;10.85;;
43793;SDS011;29414;44.798;20.366;2022-09-09T23:06:43;14.75;;;8.90;;
43793;SDS011;29414;44.798;20.366;2022-09-09T23:10:44;13.15;;;9.05;;
43793;SDS011;29414;44.798;20.366;2022-09-09T23:14:44;9.57;;;8.60;;
43793;SDS011;29414;44.798;20.366;2022-09-09T23:18:44;8.05;;;6.13;;
43793;SDS011;29414;44.798;20.366;2022-09-09T23:22:44;11.35;;;5.63;;
43793;SDS011;29414;44.798;20.366;2022-09-09T23:26:45;6.20;;;5.18;;
43793;SDS011;29414;44.798;20.366;2022-09-09T23:30:46;5.13;;;4.63;;
43793;SDS011;29414;44.798;20.366;2022-09-09T23:34:46;6.03;;;5.15;;
43793;SDS011;29414;44.798;20.366;2022-09-09T23:38:47;4.53;;;3.85;;
43793;SDS011;29414;44.798;20.366;2022-09-09T23:42:48;5.15;;;4.45;;
43793;SDS011;29414;44.798;20.366;2022-09-09T23:46:48;5.22;;;4.68;;
43793;SDS011;29414;44.798;20.366;2022-09-09T23:50:48;5.03;;;4.22;;
43793;SDS011;29414;44.798;20.366;2022-09-09T23:54:51;6.18;;;4.63;;
43793;SDS011;29414;44.798;20.366;2022-09-09T23:58:52;9.00;;;4.72;;
